Data for 09/30/2013

Time Sea-Level Adjusted Pressure Absolute Pressure Temperature Relative Humidity Dew Point Precipitation   
(mb) (inHg) (mb) (inHg) (C) (F) (%) (C) (F) (mm) (in)
00:05 1012 29.88 841 24.83 5.2 41.4 94 4.4 39.8 0 0
00:10 1012 29.88 841 24.83 5.2 41.4 95 4.5 40 0 0
00:15 1011 29.85 841 24.83 5.2 41.4 95 4.5 40.1 0 0
00:20 1011 29.85 840 24.81 5.2 41.3 95 4.5 40.1 0 0
00:25 1011 29.85 840 24.81 5.1 41.3 95 4.5 40 0 0
00:30 1011 29.85 840 24.81 5.1 41.2 96 4.4 40 0 0
00:35 1011 29.85 840 24.81 5.1 41.2 96 4.5 40.1 0 0
00:40 1011 29.85 840 24.81 5.2 41.3 96 4.6 40.3 0 0
00:45 1011 29.85 840 24.81 5.2 41.4 96 4.7 40.4 0 0
00:50 1011 29.85 840 24.81 5.2 41.4 97 4.7 40.5 0 0
00:55 1011 29.85 840 24.81 5.3 41.5 96 4.7 40.5 0 0
01:00 1011 29.85 840 24.81 5.4 41.7 96 4.7 40.5 0 0
01:05 1011 29.85 840 24.81 5.5 41.8 95 4.7 40.5 0 0
01:10 1011 29.85 840 24.81 5.4 41.8 95 4.7 40.4 0 0
01:15 1011 29.85 840 24.81 5.4 41.7 95 4.7 40.4 0 0
01:20 1011 29.85 840 24.81 5.5 41.9 94 4.6 40.3 0 0
01:25 1011 29.85 840 24.81 5.6 42 94 4.7 40.4 0 0
01:30 1011 29.85 840 24.81 5.7 42.3 92 4.6 40.3 0 0
01:35 1011 29.85 840 24.81 5.7 42.3 92 4.6 40.3 0 0
01:40 1011 29.85 840 24.81 5.7 42.2 93 4.6 40.3 0 0
01:45 1011 29.85 840 24.81 5.5 42 94 4.6 40.3 0 0
01:50 1011 29.85 840 24.81 5.6 42.1 93 4.6 40.3 0 0
01:55 1011 29.85 840 24.81 5.7 42.2 94 4.8 40.6 0 0
02:00 1011 29.85 840 24.81 5.5 41.9 95 4.8 40.6 0 0
02:05 1011 29.85 840 24.81 5.5 41.9 95 4.8 40.7 0 0
02:10 1011 29.85 840 24.81 5.5 41.9 96 4.9 40.7 0 0
02:15 1011 29.85 840 24.81 5.5 41.9 96 4.9 40.8 0 0
02:20 1011 29.85 840 24.81 5.6 42 96 4.9 40.9 0 0
02:25 1010 29.83 840 24.81 5.6 42 96 5 40.9 0 0
02:30 1010 29.83 840 24.81 5.7 42.2 96 5.1 41.1 0 0
02:35 1010 29.83 840 24.81 5.8 42.4 95 5.1 41.1 0 0
02:40 1010 29.83 840 24.81 5.8 42.5 95 5.1 41.2 0 0
02:45 1010 29.83 840 24.81 5.8 42.5 95 5.2 41.3 0 0
02:50 1010 29.83 839 24.78 5.9 42.6 95 5.2 41.3 0 0
02:55 1010 29.83 839 24.78 5.8 42.5 96 5.2 41.4 0 0
03:00 1010 29.83 839 24.78 5.8 42.5 96 5.2 41.4 0 0
03:05 1010 29.83 839 24.78 5.9 42.6 96 5.2 41.4 0 0
03:10 1010 29.83 839 24.78 5.9 42.6 96 5.3 41.5 0 0
03:15 1010 29.83 839 24.78 5.9 42.6 96 5.3 41.5 0 0
03:20 1010 29.83 839 24.78 5.9 42.7 96 5.3 41.5 0 0
03:25 1010 29.83 839 24.78 5.9 42.7 96 5.4 41.6 0 0
03:30 1010 29.83 839 24.78 5.9 42.6 97 5.4 41.7 0 0
03:35 1010 29.83 839 24.78 5.8 42.5 97 5.4 41.7 0 0
03:40 1010 29.83 839 24.78 5.9 42.6 97 5.5 41.8 0 0
03:45 1010 29.83 839 24.78 5.9 42.7 97 5.5 41.8 0 0
03:50 1010 29.83 839 24.78 5.9 42.7 97 5.5 41.8 0 0
03:55 1009 29.8 839 24.78 5.9 42.7 97 5.5 41.9 0 0
04:00 1009 29.8 839 24.78 6 42.8 97 5.5 41.9 0 0
04:05 1009 29.8 839 24.78 6 42.8 97 5.5 42 0 0
04:10 1009 29.8 839 24.78 6 42.8 97 5.6 42 0 0
04:15 1009 29.8 839 24.78 6 42.8 97 5.6 42 0 0
04:20 1009 29.8 839 24.78 6 42.8 97 5.6 42 0 0
04:25 1009 29.8 839 24.78 6 42.8 97 5.6 42.1 0 0
04:30 1009 29.8 839 24.78 6 42.8 97 5.6 42.1 0 0
04:35 1009 29.8 839 24.78 6 42.8 97 5.6 42.1 0 0
04:40 1009 29.8 839 24.78 6 42.8 97 5.6 42.1 0 0
04:45 1009 29.8 839 24.78 6 42.8 97 5.6 42.2 0 0
04:50 1009 29.8 839 24.78 6 42.9 97 5.7 42.2 .2 0.008
04:55 1009 29.8 838 24.75 6.1 42.9 97 5.7 42.2 0 0
05:00 1009 29.8 838 24.75 6.1 43 97 5.7 42.3 0 0
05:05 1009 29.8 838 24.75 6.1 42.9 98 5.7 42.3 0 0
05:10 1009 29.8 838 24.75 6.1 43 98 5.7 42.3 0 0
05:15 1009 29.8 838 24.75 6.1 43 97 5.8 42.4 0 0
05:20 1009 29.8 838 24.75 6.1 43 98 5.7 42.3 0 0
05:25 1009 29.8 838 24.75 6.2 43.1 98 5.8 42.5 .2 0.008
05:30 1009 29.8 838 24.75 6.3 43.3 98 5.9 42.6 0 0
05:35 1009 29.8 838 24.75 6.3 43.3 98 5.9 42.6 0 0
05:40 1009 29.8 838 24.75 6.4 43.5 97 5.9 42.6 0 0
05:45 1008 29.77 838 24.75 6.6 43.9 95 5.9 42.6 0 0
05:50 1008 29.77 838 24.75 6.7 44.1 95 5.9 42.7 0 0
05:55 1008 29.77 838 24.75 6.8 44.3 94 5.9 42.6 0 0
06:00 1008 29.77 837 24.72 6.9 44.3 94 5.9 42.6 0 0
06:05 1008 29.77 837 24.72 6.8 44.2 94 5.9 42.6 0 0
06:10 1008 29.77 837 24.72 6.7 44 95 5.9 42.6 0 0
06:15 1008 29.77 837 24.72 6.6 43.9 95 5.9 42.7 0 0
06:20 1008 29.77 837 24.72 6.6 43.8 96 6 42.7 0 0
06:25 1008 29.77 837 24.72 6.5 43.7 96 6 42.8 0 0
06:30 1008 29.77 837 24.72 6.5 43.7 97 6 42.8 0 0
06:35 1008 29.77 837 24.72 6.5 43.6 97 5.9 42.7 0 0
06:40 1007 29.74 837 24.72 6.4 43.5 96 5.9 42.5 0 0
06:45 1007 29.74 837 24.72 6.4 43.6 96 5.9 42.6 0 0
06:50 1007 29.74 836 24.69 6.5 43.7 96 5.9 42.6 0 0
06:55 1007 29.74 836 24.69 6.5 43.7 96 5.8 42.5 0 0
07:00 1007 29.74 836 24.69 6.4 43.5 96 5.8 42.4 0 0
07:05 1007 29.74 836 24.69 6.3 43.4 95 5.6 42.2 0 0
07:10 1007 29.74 836 24.69 6.2 43.2 95 5.5 42 0 0
07:15 1007 29.74 836 24.69 6.2 43.1 95 5.4 41.7 0 0
07:20 1007 29.74 836 24.69 6.1 43.1 95 5.3 41.6 0 0
07:25 1006 29.71 836 24.69 6.3 43.3 93 5.2 41.4 0 0
07:30 1006 29.71 835 24.66 6.2 43.2 93 5.1 41.2 0 0
07:35 1006 29.71 835 24.66 6.1 43.1 93 5.1 41.2 0 0
07:40 1006 29.71 835 24.66 6.1 43 94 5.2 41.4 0 0
07:45 1006 29.71 835 24.66 6.4 43.5 93 5.3 41.6 0 0
07:50 1006 29.71 835 24.66 6.5 43.7 92 5.3 41.5 0 0
07:55 1006 29.71 835 24.66 6.6 43.8 92 5.3 41.6 0 0
08:00 1006 29.71 835 24.66 6.6 43.8 91 5.3 41.5 0 0
08:05 1005 29.68 835 24.66 6.6 43.9 92 5.4 41.8 0 0
08:10 1005 29.68 835 24.66 7.1 44.7 87 5 41 0 0
08:15 1005 29.68 835 24.66 7.5 45.6 86 5.4 41.7 0 0
08:20 1005 29.68 835 24.66 7.9 46.2 85 5.5 42 0 0
08:25 1005 29.68 835 24.66 8.8 47.8 79 5.3 41.5 0 0
08:30 1006 29.71 835 24.66 9.9 49.7 71 4.8 40.7 0 0
08:35 1006 29.71 835 24.66 11.7 53.1 69 6.2 43.1 0 0
08:40 1006 29.71 835 24.66 12.2 54 66 6.2 43.1 0 0
08:45 1006 29.71 835 24.66 11.1 52 81 7.9 46.3 0 0
08:50 1006 29.71 835 24.66 10.4 50.8 73 5.9 42.6 0 0
08:55 1006 29.71 835 24.66 10 49.9 86 7.7 45.8 0 0
09:00 1006 29.71 835 24.66 8.7 47.6 91 7.2 45 0 0
09:05 1006 29.71 835 24.66 8.2 46.7 93 7.1 44.7 0 0
09:10 1006 29.71 835 24.66 8.6 47.6 89 6.9 44.4 0 0
09:15 1006 29.71 835 24.66 9.6 49.2 85 7.1 44.9 0 0
09:20 1006 29.71 835 24.66 9.8 49.6 84 7.2 45 0 0
09:25 1006 29.71 835 24.66 9.9 49.8 81 6.9 44.4 0 0
09:30 1006 29.71 835 24.66 10.1 50.2 85 7.6 45.7 0 0
09:35 1006 29.71 835 24.66 10.2 50.4 80 7 44.6 0 0
09:40 1006 29.71 835 24.66 10.4 50.8 75 6.3 43.3 0 0
09:45 1006 29.71 835 24.66 10.7 51.3 81 7.6 45.6 0 0
09:50 1008 29.77 837 24.72 9.3 48.8 83 6.5 43.8 0 0
09:55 1008 29.77 838 24.75 7 44.5 87 4.9 40.8 0 0
10:00 1009 29.8 838 24.75 5.8 42.4 90 4.2 39.6 .2 0.008
10:05 1009 29.8 838 24.75 5.5 41.9 91 4.2 39.5 0 0
10:10 1010 29.83 839 24.78 5.5 41.8 94 4.5 40.1 .2 0.008
10:15 1010 29.83 839 24.78 5.5 41.9 96 4.9 40.8 .2 0.008
10:20 1010 29.83 839 24.78 5.5 42 96 5 41 .2 0.008
10:25 1010 29.83 839 24.78 5.5 41.9 97 5 41 .2 0.008
10:30 1010 29.83 840 24.81 5.4 41.8 97 5 41 0 0
10:35 1011 29.85 840 24.81 5.3 41.6 96 4.7 40.5 .4 0.016
10:40 1011 29.85 840 24.81 5.3 41.5 96 4.7 40.4 0 0
10:45 1011 29.85 840 24.81 5.2 41.3 96 4.6 40.4 .4 0.016
10:50 1012 29.88 841 24.83 5.2 41.3 96 4.6 40.3 .2 0.008
10:55 1012 29.88 841 24.83 5 41 96 4.4 40 .6 0.024
11:00 1012 29.88 841 24.83 4.7 40.5 95 4 39.3 .6 0.024
11:05 1012 29.88 841 24.83 4.6 40.2 91 3.2 37.7 .2 0.008
11:10 1012 29.88 841 24.83 4.5 40.1 92 3.3 38 .4 0.016
11:15 1012 29.88 841 24.83 4.4 40 93 3.4 38.1 .2 0.008
11:20 1012 29.88 842 24.86 4.4 39.9 94 3.5 38.3 .4 0.016
11:25 1012 29.88 842 24.86 4.3 39.8 92 3.1 37.5 .4 0.016
11:30 1013 29.91 842 24.86 4.3 39.7 90 2.8 37.1 .2 0.008
11:35 1013 29.91 842 24.86 4.2 39.5 93 3.1 37.6 .4 0.016
11:40 1013 29.91 842 24.86 4.2 39.5 92 2.9 37.3 .2 0.008
11:45 1013 29.91 842 24.86 4.1 39.3 92 2.9 37.2 .4 0.016
11:50 1013 29.91 842 24.86 4 39.2 92 2.8 37.1 .2 0.008
11:55 1013 29.91 842 24.86 4 39.2 92 2.9 37.1 .2 0.008
12:00 1013 29.91 842 24.86 3.9 39 91 2.6 36.6 .4 0.016
12:05 1013 29.91 842 24.86 3.8 38.9 92 2.6 36.6 .2 0.008
12:10 1013 29.91 842 24.86 3.8 38.9 90 2.3 36.1 .4 0.016
12:15 1013 29.91 842 24.86 3.8 38.9 89 2.3 36.1 0 0
12:20 1013 29.91 842 24.86 3.8 38.8 91 2.5 36.4 .2 0.008
12:25 1013 29.91 842 24.86 3.6 38.6 91 2.3 36.2 .2 0.008
12:30 1013 29.91 842 24.86 3.3 38 92 2.2 35.9 .4 0.016
12:35 1013 29.91 842 24.86 3.2 37.8 93 2.3 36.1 .2 0.008
12:40 1013 29.91 842 24.86 3.3 37.9 93 2.3 36.1 .2 0.008
12:45 1013 29.91 842 24.86 3.4 38.1 93 2.3 36.2 0 0
12:50 1013 29.91 842 24.86 3.4 38.2 92 2.3 36.1 0 0
12:55 1013 29.91 842 24.86 3.6 38.4 92 2.3 36.2 0 0
13:00 1013 29.91 842 24.86 3.8 38.8 90 2.3 36.1 0 0
13:05 1012 29.88 842 24.86 4.1 39.4 90 2.6 36.7 0 0
13:10 1012 29.88 842 24.86 4.5 40.1 88 2.7 36.9 0 0
13:15 1013 29.91 842 24.86 4.7 40.4 84 2.3 36.1 0 0
13:20 1013 29.91 842 24.86 4.7 40.4 83 2 35.7 0 0
13:25 1013 29.91 842 24.86 4.7 40.4 85 2.4 36.4 0 0
13:30 1012 29.88 842 24.86 4.6 40.3 85 2.3 36.2 0 0
13:35 1012 29.88 842 24.86 4.7 40.5 90 3.2 37.7 0 0
13:40 1012 29.88 842 24.86 5.1 41.1 86 2.9 37.2 0 0
13:45 1013 29.91 842 24.86 5.3 41.5 85 3 37.3 0 0
13:50 1013 29.91 842 24.86 5.3 41.5 86 3.1 37.6 0 0
13:55 1013 29.91 842 24.86 5.3 41.5 83 2.7 36.8 0 0
14:00 1013 29.91 842 24.86 5.4 41.7 86 3.3 37.9 0 0
14:05 1013 29.91 842 24.86 5.7 42.3 83 3 37.4 0 0
14:10 1013 29.91 842 24.86 5.9 42.7 82 3.2 37.7 0 0
14:15 1013 29.91 842 24.86 6 42.8 84 3.5 38.2 0 0
14:20 1013 29.91 842 24.86 6.1 43 80 3 37.4 0 0
14:25 1013 29.91 842 24.86 6.3 43.3 82 3.4 38.1 0 0
14:30 1013 29.91 842 24.86 6.6 43.9 77 2.8 37.1 0 0
14:35 1013 29.91 842 24.86 7.3 45.2 68 1.8 35.2 0 0
14:40 1013 29.91 842 24.86 8 46.4 64 1.6 34.8 0 0
14:45 1013 29.91 842 24.86 8.3 46.9 65 2 35.7 0 0
14:50 1013 29.91 842 24.86 8.6 47.4 68 3 37.5 0 0
14:55 1013 29.91 842 24.86 8.2 46.7 67 2.4 36.4 0 0
15:00 1013 29.91 842 24.86 8.1 46.5 64 1.7 35 0 0
15:05 1013 29.91 842 24.86 8.2 46.8 68 2.7 36.8 0 0
15:10 1013 29.91 842 24.86 8.5 47.3 68 2.9 37.1 0 0
15:15 1013 29.91 842 24.86 8.4 47.1 65 2.2 35.9 0 0
15:20 1013 29.91 842 24.86 8.3 46.9 67 2.5 36.5 0 0
15:25 1013 29.91 842 24.86 8.2 46.8 71 3.2 37.7 0 0
15:30 1013 29.91 842 24.86 8.4 47.1 69 3.1 37.6 0 0
15:35 1013 29.91 842 24.86 8.6 47.5 66 2.6 36.6 0 0
15:40 1013 29.91 842 24.86 8.5 47.3 73 4 39.1 0 0
15:45 1013 29.91 842 24.86 8.9 47.9 71 3.9 39 0 0
15:50 1013 29.91 842 24.86 8.6 47.5 68 3 37.4 0 0
15:55 1013 29.91 842 24.86 8.6 47.5 67 2.9 37.2 0 0
16:00 1013 29.91 843 24.89 8.7 47.6 62 1.7 35.1 0 0
16:05 1013 29.91 843 24.89 9.3 48.7 54 0.5 33 0 0
16:10 1013 29.91 843 24.89 9.7 49.4 57 1.6 34.9 0 0
16:15 1013 29.91 843 24.89 10.1 50.2 54 1.3 34.3 0 0
16:20 1014 29.94 843 24.89 10.3 50.5 55 1.7 35.1 0 0
16:25 1014 29.94 843 24.89 10.4 50.7 43 -1.7 28.9 0 0
16:30 1014 29.94 843 24.89 10.1 50.2 47 -0.6 30.9 0 0
16:35 1014 29.94 843 24.89 9.6 49.2 51 -0.1 31.9 0 0
16:40 1014 29.94 843 24.89 10 50 46 -1 30.2 0 0
16:45 1014 29.94 843 24.89 10.3 50.6 46 -0.8 30.6 0 0
16:50 1014 29.94 843 24.89 10.1 50.2 43 -1.7 28.9 0 0
16:55 1014 29.94 843 24.89 10.3 50.5 43 -1.7 29 0 0
17:00 1014 29.94 843 24.89 10 50 42 -2.2 28 0 0
17:05 1014 29.94 843 24.89 10.1 50.2 41 -2.5 27.5 0 0
17:10 1014 29.94 843 24.89 9.8 49.6 42 -2.4 27.6 0 0
17:15 1014 29.94 843 24.89 10 50.1 41 -2.7 27.2 0 0
17:20 1014 29.94 843 24.89 10 49.9 45 -1.5 29.3 0 0
17:25 1014 29.94 843 24.89 9.9 49.9 44 -1.6 29.1 0 0
17:30 1014 29.94 843 24.89 9.9 49.8 42 -2.3 27.9 0 0
17:35 1014 29.94 843 24.89 9.8 49.6 46 -1.3 29.6 0 0
17:40 1014 29.94 843 24.89 9.7 49.4 40 -3.3 26.1 0 0
17:45 1014 29.94 843 24.89 9.6 49.2 42 -2.7 27.1 0 0
17:50 1014 29.94 843 24.89 9.6 49.2 47 -1.3 29.7 0 0
17:55 1014 29.94 844 24.92 9.5 49.2 45 -1.7 29 0 0
18:00 1014 29.94 844 24.92 9.4 49 46 -1.7 28.9 0 0
18:05 1014 29.94 844 24.92 9.3 48.8 45 -1.9 28.6 0 0
18:10 1014 29.94 844 24.92 9.2 48.6 47 -1.5 29.3 0 0
18:15 1015 29.97 844 24.92 9 48.3 49 -1 30.2 0 0
18:20 1015 29.97 844 24.92 8.8 47.9 48 -1.5 29.3 0 0
18:25 1015 29.97 844 24.92 8.6 47.4 50 -1.2 29.8 0 0
18:30 1015 29.97 844 24.92 8.3 46.9 49 -1.8 28.7 0 0
18:35 1015 29.97 844 24.92 8 46.3 53 -0.9 30.4 0 0
18:40 1015 29.97 844 24.92 7.6 45.6 53 -1.3 29.6 0 0
18:45 1015 29.97 844 24.92 6.9 44.4 55 -1.5 29.4 0 0
18:50 1015 29.97 844 24.92 6.6 43.8 55 -1.8 28.8 0 0
18:55 1015 29.97 845 24.95 6.5 43.7 56 -1.6 29.1 0 0
19:00 1015 29.97 845 24.95 6.1 43.1 59 -1.3 29.6 0 0
19:05 1015 29.97 845 24.95 5.6 42 59 -1.8 28.7 0 0
19:10 1016 30 845 24.95 5.5 41.8 59 -1.9 28.6 0 0
19:15 1016 30 845 24.95 5.4 41.7 59 -1.9 28.6 0 0
19:20 1016 30 845 24.95 4.9 40.8 64 -1.3 29.6 0 0
19:25 1016 30 845 24.95 4.3 39.7 65 -1.7 28.9 0 0
19:30 1016 30 845 24.95 4 39.2 65 -1.9 28.6 0 0
19:35 1016 30 845 24.95 4 39.3 66 -1.8 28.7 0 0
19:40 1016 30 845 24.95 4.2 39.5 64 -2.1 28.3 0 0
19:45 1016 30 845 24.95 4.5 40.2 60 -2.5 27.6 0 0
19:50 1016 30 845 24.95 4.8 40.7 63 -1.6 29 0 0
19:55 1016 30 845 24.95 4.4 39.9 65 -1.6 29.1 0 0
20:00 1016 30 845 24.95 4.5 40.1 65 -1.5 29.3 0 0
20:05 1016 30 845 24.95 4.5 40.1 63 -1.9 28.6 0 0
20:10 1016 30 846 24.98 4.4 39.9 67 -1.2 29.9 0 0
20:15 1017 30.03 846 24.98 3.8 38.9 66 -1.9 28.7 0 0
20:20 1017 30.03 846 24.98 4.3 39.8 59 -2.9 26.8 0 0
20:25 1017 30.03 846 24.98 5 40.9 61 -1.8 28.7 0 0
20:30 1017 30.03 846 24.98 4.3 39.8 64 -1.9 28.6 0 0
20:35 1017 30.03 846 24.98 4.1 39.5 63 -2.2 28.1 0 0
20:40 1017 30.03 846 24.98 3.3 38 71 -1.5 29.4 0 0
20:45 1017 30.03 846 24.98 2.8 37 75 -1.3 29.6 0 0
20:50 1017 30.03 846 24.98 3 37.5 73 -1.3 29.6 0 0
20:55 1017 30.03 846 24.98 2.6 36.6 77 -1.1 30.1 0 0
21:00 1017 30.03 846 24.98 1.9 35.4 80 -1.2 29.9 0 0
21:05 1017 30.03 846 24.98 1.7 35.1 81 -1.2 29.8 0 0
21:10 1017 30.03 846 24.98 1.2 34.2 85 -1.1 30 0 0
21:15 1017 30.03 847 25.01 0.9 33.7 86 -1.2 29.8 0 0
21:20 1017 30.03 847 25.01 0.8 33.4 86 -1.3 29.7 0 0
21:25 1017 30.03 846 24.98 0.9 33.5 86 -1.2 29.8 0 0
21:30 1017 30.03 846 24.98 1 33.7 85 -1.3 29.6 0 0
21:35 1017 30.03 846 24.98 0.6 33.1 86 -1.5 29.3 0 0
21:40 1017 30.03 847 25.01 0.4 32.7 87 -1.5 29.3 0 0
21:45 1017 30.03 847 25.01 0.6 33.2 86 -1.4 29.4 0 0
21:50 1018 30.06 847 25.01 0.6 33.1 86 -1.5 29.3 0 0
21:55 1018 30.06 847 25.01 0.3 32.5 86 -1.8 28.7 0 0
22:00 1018 30.06 847 25.01 0.6 33.1 83 -2 28.5 0 0
22:05 1018 30.06 847 25.01 1.6 34.8 79 -1.7 28.9 0 0
22:10 1018 30.06 847 25.01 1.6 34.9 78 -1.8 28.8 0 0
22:15 1018 30.06 847 25.01 2.1 35.7 75 -1.9 28.6 0 0
22:20 1018 30.06 847 25.01 1.9 35.5 76 -1.8 28.7 0 0
22:25 1018 30.06 847 25.01 0.6 33.1 84 -1.8 28.8 0 0
22:30 1018 30.06 847 25.01 0.1 32.1 85 -2.1 28.2 0 0
22:35 1018 30.06 847 25.01 -0.3 31.5 87 -2.2 28 0 0
22:40 1018 30.06 847 25.01 -0.7 30.8 89 -2.3 27.9 0 0
22:45 1018 30.06 847 25.01 -0.4 31.2 89 -2.1 28.2 0 0
22:50 1018 30.06 847 25.01 0.1 32.1 86 -2 28.4 0 0
22:55 1018 30.06 847 25.01 0.5 32.9 84 -1.8 28.7 0 0
23:00 1018 30.06 847 25.01 0 32 87 -1.9 28.5 0 0
23:05 1018 30.06 847 25.01 -0.3 31.5 87 -2.2 28 0 0
23:10 1018 30.06 847 25.01 -0.7 30.7 88 -2.5 27.5 0 0
23:15 1018 30.06 847 25.01 -0.7 30.8 88 -2.4 27.7 0 0
23:20 1018 30.06 847 25.01 -0.1 31.8 87 -2 28.3 0 0
23:25 1018 30.06 847 25.01 0.2 32.4 82 -2.5 27.5 0 0
23:30 1018 30.06 847 25.01 0.6 33.1 80 -2.4 27.7 0 0
23:35 1018 30.06 847 25.01 0.8 33.5 77 -2.7 27.1 0 0
23:40 1018 30.06 847 25.01 1.7 35 74 -2.4 27.6 0 0
23:45 1018 30.06 847 25.01 2 35.6 73 -2.3 27.8 0 0
23:50 1018 30.06 847 25.01 2.1 35.8 71 -2.5 27.4 0 0
23:55 1018 30.06 847 25.01 2 35.7 73 -2.3 27.8 0 0
24:00 1018 30.06 847 25.01 1.7 35.1 74 -2.5 27.6 0 0